createdAt,value
2018-09-01T00:02:54.670Z,14.00
2018-09-01T00:05:58.905Z,13.96
2018-09-01T00:09:09.744Z,13.92
2018-09-01T00:12:14.005Z,13.89
2018-09-01T00:15:18.212Z,13.89
2018-09-01T00:18:22.446Z,13.88
2018-09-01T00:21:26.824Z,13.85
2018-09-01T00:24:31.040Z,13.85
2018-09-01T00:27:35.261Z,13.82
2018-09-01T00:30:39.506Z,13.78
2018-09-01T00:33:43.729Z,13.74
2018-09-01T00:36:47.984Z,13.69
2018-09-01T00:39:52.501Z,13.64
2018-09-01T00:42:58.872Z,13.58
2018-09-01T00:46:03.104Z,13.51
2018-09-01T00:49:07.354Z,13.47
2018-09-01T00:52:11.585Z,13.42
2018-09-01T00:55:21.149Z,13.37
2018-09-01T00:58:25.369Z,13.31
2018-09-01T01:01:29.580Z,13.26
2018-09-01T01:04:33.961Z,13.20
2018-09-01T01:07:38.214Z,13.16
2018-09-01T01:10:42.434Z,13.10
2018-09-01T01:13:46.854Z,13.05
2018-09-01T01:16:51.045Z,13.00
2018-09-01T01:19:55.304Z,12.94
2018-09-01T01:22:59.501Z,12.88
2018-09-01T01:26:03.734Z,12.81
2018-09-01T01:29:07.997Z,12.74
2018-09-01T01:32:12.222Z,12.66
2018-09-01T01:35:16.466Z,12.63
2018-09-01T01:38:20.693Z,12.58
2018-09-01T01:41:24.938Z,12.58
2018-09-01T01:44:29.165Z,12.60
2018-09-01T01:47:38.433Z,12.60
2018-09-01T01:50:42.687Z,12.57
2018-09-01T01:53:46.905Z,12.54
2018-09-01T01:56:51.250Z,12.52
2018-09-01T01:59:55.458Z,12.50
2018-09-01T02:02:59.705Z,12.49
2018-09-01T02:06:03.912Z,12.48
2018-09-01T02:09:08.148Z,12.47
2018-09-01T02:12:12.377Z,12.47
2018-09-01T02:15:16.612Z,12.46
2018-09-01T02:18:20.845Z,12.45
2018-09-01T02:21:25.076Z,12.43
2018-09-01T02:24:29.508Z,12.41
2018-09-01T02:27:33.745Z,12.38
2018-09-01T02:30:37.946Z,12.37
2018-09-01T02:33:42.192Z,12.35
2018-09-01T02:36:46.405Z,12.34
2018-09-01T02:39:50.656Z,12.30
2018-09-01T02:42:54.877Z,12.26
2018-09-01T02:45:59.077Z,12.26
2018-09-01T02:49:03.453Z,12.21
2018-09-01T02:52:07.681Z,12.21
2018-09-01T02:55:11.924Z,12.20
2018-09-01T02:58:16.149Z,12.17
2018-09-01T03:01:25.540Z,12.13
2018-09-01T03:04:29.794Z,12.07
2018-09-01T03:07:34.022Z,12.05
2018-09-01T03:10:38.248Z,12.02
2018-09-01T03:13:42.471Z,12.00
2018-09-01T03:16:46.661Z,11.99
2018-09-01T03:19:50.893Z,11.99
2018-09-01T03:22:55.076Z,11.99
2018-09-01T03:25:59.313Z,11.95
2018-09-01T03:29:03.541Z,11.93
2018-09-01T03:32:07.778Z,11.92
2018-09-01T03:35:12.016Z,11.92
2018-09-01T03:38:16.251Z,11.90
2018-09-01T03:41:20.497Z,11.89
2018-09-01T03:44:24.716Z,11.87
2018-09-01T03:47:28.937Z,11.86
2018-09-01T03:50:33.173Z,11.88
2018-09-01T03:53:37.412Z,11.89
2018-09-01T03:56:41.640Z,11.89
2018-09-01T03:59:45.866Z,11.89
2018-09-01T04:02:50.109Z,11.90
2018-09-01T04:05:54.316Z,11.90
2018-09-01T04:08:58.547Z,11.92
2018-09-01T04:12:02.773Z,11.90
2018-09-01T04:15:07.599Z,11.90
2018-09-01T04:18:11.821Z,11.90
2018-09-01T04:21:16.053Z,11.91
2018-09-01T04:24:20.272Z,11.88
2018-09-01T04:27:24.485Z,11.86
2018-09-01T04:30:28.677Z,11.84
2018-09-01T04:33:32.910Z,11.82
2018-09-01T04:36:37.125Z,11.79
2018-09-01T04:39:41.337Z,11.77
2018-09-01T04:42:45.565Z,11.73
2018-09-01T04:45:49.788Z,11.72
2018-09-01T04:48:54.032Z,11.70
2018-09-01T04:51:58.257Z,11.70
2018-09-01T04:55:02.474Z,11.67
2018-09-01T04:58:06.696Z,11.65
2018-09-01T05:01:11.099Z,11.63
2018-09-01T05:04:15.167Z,11.64
2018-09-01T05:07:19.372Z,11.64
2018-09-01T05:10:23.589Z,11.63
2018-09-01T05:13:27.808Z,11.61
2018-09-01T05:16:32.086Z,11.58
2018-09-01T05:19:36.305Z,11.55
2018-09-01T05:22:40.568Z,11.53
2018-09-01T05:25:44.768Z,11.49
2018-09-01T05:28:49.037Z,11.47
2018-09-01T05:31:53.264Z,11.50
2018-09-01T05:34:57.579Z,11.52
2018-09-01T05:38:01.776Z,11.58
2018-09-01T05:41:06.193Z,11.66
2018-09-01T05:44:10.417Z,11.69
2018-09-01T05:47:14.621Z,11.70
2018-09-01T05:50:18.849Z,11.75
2018-09-01T05:53:23.154Z,11.80
2018-09-01T05:56:27.367Z,11.84
2018-09-01T05:59:32.181Z,11.94
2018-09-01T06:02:36.390Z,12.04
2018-09-01T06:05:40.621Z,12.12
2018-09-01T06:08:44.833Z,12.22
2018-09-01T06:11:49.081Z,12.30
2018-09-01T06:14:53.305Z,12.41
2018-09-01T06:17:57.637Z,12.48
2018-09-01T06:21:01.777Z,12.56
2018-09-01T06:24:06.415Z,12.58
2018-09-01T06:27:16.017Z,12.59
2018-09-01T06:30:26.141Z,12.67
2018-09-01T06:33:30.480Z,12.76
2018-09-01T06:36:34.837Z,12.88
2018-09-01T06:39:39.072Z,13.02
2018-09-01T06:42:43.324Z,13.15
2018-09-01T06:45:47.542Z,13.27
2018-09-01T06:48:52.024Z,13.33
2018-09-01T06:51:56.245Z,13.38
2018-09-01T06:55:00.444Z,13.42
2018-09-01T06:58:04.645Z,13.47
2018-09-01T07:01:08.882Z,13.53
2018-09-01T07:04:13.148Z,13.60
2018-09-01T07:07:17.356Z,13.64
2018-09-01T07:10:22.048Z,13.68
2018-09-01T07:13:26.266Z,13.75
2018-09-01T07:16:30.504Z,13.81
2018-09-01T07:19:34.738Z,13.90
2018-09-01T07:22:38.976Z,14.02
2018-09-01T07:25:43.194Z,14.10
2018-09-01T07:28:47.425Z,14.05
2018-09-01T07:31:51.645Z,14.00
2018-09-01T07:34:55.869Z,14.00
2018-09-01T07:38:00.109Z,14.02
2018-09-01T07:41:04.308Z,14.05
2018-09-01T07:44:08.534Z,14.07
2018-09-01T07:47:15.627Z,14.14
2018-09-01T07:50:20.193Z,14.23
2018-09-01T07:53:25.075Z,14.34
2018-09-01T07:56:29.633Z,14.45
2018-09-01T07:59:35.145Z,14.48
2018-09-01T08:02:39.875Z,14.61
2018-09-01T08:05:44.593Z,14.67
2018-09-01T08:08:49.757Z,14.85
2018-09-01T08:11:54.514Z,15.03
2018-09-01T08:14:58.793Z,15.22
2018-09-01T08:18:04.190Z,15.45
2018-09-01T08:21:09.129Z,15.70
2018-09-01T08:24:14.198Z,15.93
2018-09-01T08:27:18.612Z,16.11
2018-09-01T08:30:22.880Z,16.22
2018-09-01T08:33:27.164Z,16.31
2018-09-01T08:36:31.493Z,16.36
2018-09-01T08:39:35.706Z,16.33
2018-09-01T08:42:39.926Z,16.34
2018-09-01T08:45:44.152Z,16.38
2018-09-01T08:48:48.362Z,16.58
2018-09-01T08:51:52.600Z,16.75
2018-09-01T08:54:56.825Z,16.92
2018-09-01T08:58:01.065Z,16.93
2018-09-01T09:01:05.297Z,17.00
2018-09-01T09:04:09.521Z,17.09
2018-09-01T09:07:13.761Z,17.31
2018-09-01T09:10:17.985Z,17.56
2018-09-01T09:13:22.204Z,17.72
2018-09-01T09:16:26.433Z,17.70
2018-09-01T09:19:30.667Z,17.79
2018-09-01T09:22:35.212Z,17.92
2018-09-01T09:25:39.401Z,18.14
2018-09-01T09:28:43.613Z,18.30
2018-09-01T09:31:47.808Z,18.44
2018-09-01T09:34:52.021Z,18.55
2018-09-01T09:37:56.249Z,18.77
2018-09-01T09:41:00.477Z,18.85
2018-09-01T09:44:04.688Z,18.87
2018-09-01T09:47:08.901Z,18.89
2018-09-01T09:50:13.094Z,18.93
2018-09-01T09:53:17.309Z,18.90
2018-09-01T09:56:21.485Z,18.77
2018-09-01T09:59:25.716Z,18.61
2018-09-01T10:02:29.948Z,18.46
2018-09-01T10:05:34.217Z,18.32
2018-09-01T10:08:38.349Z,18.22
2018-09-01T10:11:43.285Z,18.19
2018-09-01T10:14:48.326Z,18.13
2018-09-01T10:17:52.513Z,18.26
2018-09-01T10:20:56.724Z,18.37
2018-09-01T10:24:00.929Z,18.40
2018-09-01T10:27:05.222Z,18.33
2018-09-01T10:30:09.338Z,18.27
2018-09-01T10:33:13.545Z,18.25
2018-09-01T10:36:17.751Z,18.25
2018-09-01T10:39:21.981Z,18.25
2018-09-01T10:42:26.169Z,18.25
2018-09-01T10:45:30.396Z,18.36
2018-09-01T10:48:34.598Z,18.45
2018-09-01T10:51:38.977Z,18.53
2018-09-01T10:54:43.185Z,18.61
2018-09-01T10:57:47.383Z,18.68
2018-09-01T11:00:51.595Z,18.79
2018-09-01T11:03:55.785Z,18.92
2018-09-01T11:06:59.987Z,19.04
2018-09-01T11:10:04.216Z,19.17
2018-09-01T11:13:08.447Z,19.29
2018-09-01T11:16:12.694Z,19.50
2018-09-01T11:19:16.896Z,19.65
2018-09-01T11:22:21.097Z,19.63
2018-09-01T11:25:25.284Z,19.52
2018-09-01T11:28:29.485Z,19.46
2018-09-01T11:31:33.701Z,19.39
2018-09-01T11:34:37.916Z,19.32
2018-09-01T11:37:42.110Z,19.38
2018-09-01T11:40:46.320Z,19.44
2018-09-01T11:43:50.549Z,19.52
2018-09-01T11:46:54.736Z,19.60
2018-09-01T11:49:58.932Z,19.62
2018-09-01T11:53:03.147Z,19.67
2018-09-01T11:56:07.337Z,19.75
2018-09-01T11:59:11.760Z,19.93
2018-09-01T12:02:15.989Z,19.91
2018-09-01T12:05:20.176Z,19.91
2018-09-01T12:08:24.352Z,19.92
2018-09-01T12:11:28.592Z,19.88
2018-09-01T12:14:32.797Z,19.94
2018-09-01T12:17:37.033Z,20.02
2018-09-01T12:20:41.318Z,20.02
2018-09-01T12:23:45.521Z,20.00
2018-09-01T12:26:49.729Z,20.01
2018-09-01T12:29:53.928Z,19.94
2018-09-01T12:32:58.121Z,19.84
2018-09-01T12:36:02.350Z,19.79
2018-09-01T12:39:06.988Z,19.79
2018-09-01T12:42:11.266Z,19.82
2018-09-01T12:45:15.453Z,19.80
2018-09-01T12:48:19.665Z,19.80
2018-09-01T12:51:23.881Z,19.75
2018-09-01T12:54:28.121Z,19.76
2018-09-01T12:57:32.323Z,19.84
2018-09-01T13:00:36.571Z,20.01
2018-09-01T13:03:40.725Z,20.17
2018-09-01T13:06:44.941Z,20.40
2018-09-01T13:09:49.193Z,20.51
2018-09-01T13:12:53.382Z,20.68
2018-09-01T13:15:57.607Z,20.78
2018-09-01T13:19:02.145Z,20.77
2018-09-01T13:22:06.397Z,20.84
2018-09-01T13:25:10.656Z,20.90
2018-09-01T13:28:14.844Z,20.82
2018-09-01T13:31:19.054Z,20.75
2018-09-01T13:34:23.300Z,20.77
2018-09-01T13:37:27.920Z,20.90
2018-09-01T13:40:32.156Z,20.98
2018-09-01T13:43:36.353Z,20.99
2018-09-01T13:46:40.577Z,20.83
2018-09-01T13:49:44.758Z,20.66
2018-09-01T13:52:48.968Z,20.49
2018-09-01T13:55:53.161Z,20.35
2018-09-01T13:58:57.348Z,20.23
2018-09-01T14:02:01.670Z,20.12
2018-09-01T14:05:05.892Z,20.12
2018-09-01T14:08:10.089Z,20.12
2018-09-01T14:11:14.276Z,20.14
2018-09-01T14:14:18.495Z,20.04
2018-09-01T14:17:22.699Z,19.93
2018-09-01T14:20:26.897Z,19.88
2018-09-01T14:23:31.101Z,19.89
2018-09-01T14:26:35.318Z,19.85
2018-09-01T14:29:39.512Z,19.79
2018-09-01T14:32:43.733Z,19.76
2018-09-01T14:35:47.947Z,19.84
2018-09-01T14:38:52.236Z,19.96
2018-09-01T14:41:56.406Z,20.03
2018-09-01T14:45:00.605Z,20.08
2018-09-01T14:48:04.817Z,20.02
2018-09-01T14:51:09.045Z,20.04
2018-09-01T14:54:16.933Z,20.13
2018-09-01T14:57:22.963Z,20.23
2018-09-01T15:00:28.376Z,20.23
2018-09-01T15:03:33.931Z,20.20
2018-09-01T15:06:39.251Z,20.06
2018-09-01T15:09:44.086Z,19.89
2018-09-01T15:12:50.229Z,19.77
2018-09-01T15:15:56.481Z,19.69
2018-09-01T15:19:01.928Z,19.59
2018-09-01T15:22:06.936Z,19.50
2018-09-01T15:25:13.403Z,19.52
2018-09-01T15:28:18.907Z,19.62
2018-09-01T15:31:25.016Z,19.65
2018-09-01T15:34:33.012Z,19.56
2018-09-01T15:37:38.564Z,19.49
2018-09-01T15:40:43.529Z,19.47
2018-09-01T15:43:50.444Z,19.50
2018-09-01T15:46:56.086Z,19.75
2018-09-01T15:50:01.017Z,20.07
2018-09-01T15:53:06.192Z,20.45
2018-09-01T15:56:10.944Z,20.89
2018-09-01T15:59:15.809Z,21.35
2018-09-01T16:02:27.384Z,21.76
2018-09-01T16:05:32.064Z,22.08
2018-09-01T16:08:36.301Z,22.31
2018-09-01T16:11:40.484Z,22.44
2018-09-01T16:14:44.681Z,22.48
2018-09-01T16:17:49.220Z,22.53
2018-09-01T16:20:53.451Z,22.54
2018-09-01T16:23:57.652Z,22.29
2018-09-01T16:27:01.871Z,21.96
2018-09-01T16:30:06.100Z,21.60
2018-09-01T16:33:10.313Z,21.31
2018-09-01T16:36:14.509Z,21.05
2018-09-01T16:39:18.715Z,20.77
2018-09-01T16:42:22.908Z,20.55
2018-09-01T16:45:27.102Z,20.35
2018-09-01T16:48:31.323Z,20.20
2018-09-01T16:51:35.534Z,20.06
2018-09-01T16:54:39.741Z,19.92
2018-09-01T16:57:44.008Z,19.83
2018-09-01T17:00:48.298Z,19.71
2018-09-01T17:03:52.436Z,19.61
2018-09-01T17:06:56.645Z,19.52
2018-09-01T17:10:00.853Z,19.48
2018-09-01T17:13:05.217Z,19.39
2018-09-01T17:16:09.445Z,19.32
2018-09-01T17:19:13.648Z,19.25
2018-09-01T17:22:17.873Z,19.19
2018-09-01T17:25:22.081Z,19.13
2018-09-01T17:28:26.359Z,19.07
2018-09-01T17:31:30.554Z,19.00
2018-09-01T17:34:34.771Z,18.94
2018-09-01T17:37:39.000Z,18.88
2018-09-01T17:40:43.205Z,18.81
2018-09-01T17:43:47.428Z,18.76
2018-09-01T17:46:51.596Z,18.70
2018-09-01T17:49:55.801Z,18.64
2018-09-01T17:52:59.987Z,18.59
2018-09-01T17:56:04.205Z,18.53
2018-09-01T17:59:08.400Z,18.48
2018-09-01T18:02:13.715Z,18.41
2018-09-01T18:05:17.865Z,18.33
2018-09-01T18:08:22.077Z,18.25
2018-09-01T18:11:26.276Z,18.20
2018-09-01T18:14:30.749Z,18.16
2018-09-01T18:17:34.945Z,18.11
2018-09-01T18:20:39.173Z,18.07
2018-09-01T18:23:43.373Z,18.02
2018-09-01T18:26:47.709Z,17.99
2018-09-01T18:29:51.896Z,17.98
2018-09-01T18:32:56.112Z,17.96
2018-09-01T18:36:00.330Z,17.95
2018-09-01T18:39:06.026Z,17.92
2018-09-01T18:42:10.225Z,17.89
2018-09-01T18:45:14.465Z,17.84
2018-09-01T18:48:18.665Z,17.82
2018-09-01T18:51:22.889Z,17.76
2018-09-01T18:54:27.097Z,17.66
2018-09-01T18:57:31.285Z,17.54
2018-09-01T19:00:35.501Z,17.42
2018-09-01T19:03:39.728Z,17.35
2018-09-01T19:06:43.957Z,17.27
2018-09-01T19:09:48.141Z,17.20
2018-09-01T19:12:52.372Z,17.13
2018-09-01T19:15:56.561Z,17.05
2018-09-01T19:19:00.769Z,16.99
2018-09-01T19:22:04.956Z,16.91
2018-09-01T19:25:09.366Z,16.85
2018-09-01T19:28:13.677Z,16.76
2018-09-01T19:31:17.909Z,16.67
2018-09-01T19:34:22.105Z,16.62
2018-09-01T19:37:26.313Z,16.57
2018-09-01T19:40:30.509Z,16.49
2018-09-01T19:43:34.732Z,16.41
2018-09-01T19:46:38.920Z,16.33
2018-09-01T19:49:43.124Z,16.28
2018-09-01T19:52:47.333Z,16.23
2018-09-01T19:55:51.547Z,16.19
2018-09-01T19:58:55.800Z,16.12
2018-09-01T20:02:00.382Z,16.05
2018-09-01T20:05:04.700Z,16.01
2018-09-01T20:08:08.858Z,15.97
2018-09-01T20:11:13.048Z,15.93
2018-09-01T20:14:17.236Z,15.85
2018-09-01T20:17:21.453Z,15.80
2018-09-01T20:20:25.657Z,15.76
2018-09-01T20:23:29.867Z,15.74
2018-09-01T20:26:34.081Z,15.66
2018-09-01T20:29:38.300Z,15.61
2018-09-01T20:32:42.516Z,15.59
2018-09-01T20:35:52.012Z,15.54
2018-09-01T20:38:56.233Z,15.48
2018-09-01T20:42:00.430Z,15.44
2018-09-01T20:45:04.729Z,15.40
2018-09-01T20:48:08.900Z,15.39
2018-09-01T20:51:13.117Z,15.35
2018-09-01T20:54:17.346Z,15.33
2018-09-01T20:57:21.542Z,15.29
2018-09-01T21:00:25.732Z,15.25
2018-09-01T21:03:29.907Z,15.22
2018-09-01T21:06:34.107Z,15.18
2018-09-01T21:09:38.329Z,15.13
2018-09-01T21:12:42.537Z,15.12
2018-09-01T21:15:46.724Z,15.10
2018-09-01T21:18:50.933Z,15.11
2018-09-01T21:21:55.138Z,15.14
2018-09-01T21:24:59.352Z,15.15
2018-09-01T21:28:03.652Z,15.17
2018-09-01T21:31:07.837Z,15.20
2018-09-01T21:34:12.074Z,15.21
2018-09-01T21:37:16.255Z,15.24
2018-09-01T21:40:20.467Z,15.23
2018-09-01T21:43:24.681Z,15.25
2018-09-01T21:46:28.901Z,15.24
2018-09-01T21:49:33.126Z,15.26
2018-09-01T21:52:37.356Z,15.24
2018-09-01T21:55:41.560Z,15.20
2018-09-01T21:58:45.775Z,15.18
2018-09-01T22:01:55.237Z,15.19
2018-09-01T22:05:04.637Z,15.21
2018-09-01T22:08:08.850Z,15.19
2018-09-01T22:11:13.067Z,15.20
2018-09-01T22:14:17.273Z,15.21
2018-09-01T22:17:22.160Z,15.21
2018-09-01T22:20:26.365Z,15.19
2018-09-01T22:23:30.569Z,15.19
2018-09-01T22:26:34.761Z,15.20
2018-09-01T22:29:39.016Z,15.20
2018-09-01T22:32:43.245Z,15.20
2018-09-01T22:35:47.448Z,15.23
2018-09-01T22:38:51.673Z,15.25
2018-09-01T22:41:55.887Z,15.27
2018-09-01T22:45:00.126Z,15.31
2018-09-01T22:48:04.355Z,15.32
2018-09-01T22:51:08.584Z,15.31
2018-09-01T22:54:12.778Z,15.26
2018-09-01T22:57:17.097Z,15.24
2018-09-01T23:00:21.317Z,15.25
2018-09-01T23:03:25.501Z,15.22
2018-09-01T23:06:29.697Z,15.19
2018-09-01T23:09:33.904Z,15.15
2018-09-01T23:12:38.533Z,15.14
2018-09-01T23:15:42.699Z,15.12
2018-09-01T23:18:46.919Z,15.10
2018-09-01T23:21:51.105Z,15.09
2018-09-01T23:24:55.332Z,15.08
2018-09-01T23:27:59.534Z,15.03
2018-09-01T23:31:03.789Z,15.00
2018-09-01T23:34:08.002Z,15.00
2018-09-01T23:37:12.210Z,14.93
2018-09-01T23:40:16.419Z,14.92
2018-09-01T23:43:20.645Z,14.89
2018-09-01T23:46:24.869Z,14.84
2018-09-01T23:49:29.105Z,14.82
2018-09-01T23:52:33.278Z,14.79
2018-09-01T23:55:37.505Z,14.78
2018-09-01T23:58:41.710Z,14.76
